sensor_id;sensor_type;location;lat;lon;timestamp;pressure;altitude;pressure_sealevel;temperature
15845;BMP180;50807;52.436;13.346;2022-10-16T00:00:08;100664.00;;;19.70
15845;BMP180;50807;52.436;13.346;2022-10-16T00:00:42;100663.00;;;19.70
15845;BMP180;50807;52.436;13.346;2022-10-16T00:01:16;100662.00;;;19.70
15845;BMP180;50807;52.436;13.346;2022-10-16T00:01:47;100660.00;;;19.70
15845;BMP180;50807;52.436;13.346;2022-10-16T00:02:18;100653.00;;;19.70
15845;BMP180;50807;52.436;13.346;2022-10-16T00:02:51;100674.00;;;19.70
15845;BMP180;50807;52.436;13.346;2022-10-16T00:03:22;100669.00;;;19.70
15845;BMP180;50807;52.436;13.346;2022-10-16T00:03:53;100666.00;;;19.80
15845;BMP180;50807;52.436;13.346;2022-10-16T00:04:25;100664.00;;;19.80
15845;BMP180;50807;52.436;13.346;2022-10-16T00:04:55;100665.00;;;19.80
15845;BMP180;50807;52.436;13.346;2022-10-16T00:05:26;100664.00;;;19.80
15845;BMP180;50807;52.436;13.346;2022-10-16T00:05:59;100669.00;;;19.70
15845;BMP180;50807;52.436;13.346;2022-10-16T00:06:31;100666.00;;;19.80
15845;BMP180;50807;52.436;13.346;2022-10-16T00:07:02;100674.00;;;19.80
15845;BMP180;50807;52.436;13.346;2022-10-16T00:07:34;100668.00;;;19.80
15845;BMP180;50807;52.436;13.346;2022-10-16T00:08:05;100669.00;;;19.80
15845;BMP180;50807;52.436;13.346;2022-10-16T00:08:38;100672.00;;;19.80
15845;BMP180;50807;52.436;13.346;2022-10-16T00:09:09;100667.00;;;19.80
15845;BMP180;50807;52.436;13.346;2022-10-16T00:09:41;100681.00;;;19.80
15845;BMP180;50807;52.436;13.346;2022-10-16T00:10:12;100675.00;;;19.80
15845;BMP180;50807;52.436;13.346;2022-10-16T00:10:42;100676.00;;;19.80
15845;BMP180;50807;52.436;13.346;2022-10-16T00:11:17;100676.00;;;19.80
15845;BMP180;50807;52.436;13.346;2022-10-16T00:11:49;100679.00;;;19.80
15845;BMP180;50807;52.436;13.346;2022-10-16T00:12:20;100670.00;;;19.80
15845;BMP180;50807;52.436;13.346;2022-10-16T00:12:50;100671.00;;;19.80
15845;BMP180;50807;52.436;13.346;2022-10-16T00:13:21;100678.00;;;19.80
15845;BMP180;50807;52.436;13.346;2022-10-16T00:13:57;100677.00;;;19.80
15845;BMP180;50807;52.436;13.346;2022-10-16T00:14:28;100676.00;;;19.80
15845;BMP180;50807;52.436;13.346;2022-10-16T00:15:00;100678.00;;;19.90
15845;BMP180;50807;52.436;13.346;2022-10-16T00:15:33;100677.00;;;19.80
15845;BMP180;50807;52.436;13.346;2022-10-16T00:16:08;100685.00;;;19.90
15845;BMP180;50807;52.436;13.346;2022-10-16T00:16:40;100679.00;;;19.90
15845;BMP180;50807;52.436;13.346;2022-10-16T00:17:11;100683.00;;;19.90
15845;BMP180;50807;52.436;13.346;2022-10-16T00:17:41;100678.00;;;19.90
15845;BMP180;50807;52.436;13.346;2022-10-16T00:18:14;100685.00;;;19.90
15845;BMP180;50807;52.436;13.346;2022-10-16T00:18:46;100683.00;;;19.90
15845;BMP180;50807;52.436;13.346;2022-10-16T00:19:16;100682.00;;;19.90
15845;BMP180;50807;52.436;13.346;2022-10-16T00:19:48;100678.00;;;19.90
15845;BMP180;50807;52.436;13.346;2022-10-16T00:20:19;100677.00;;;19.90
15845;BMP180;50807;52.436;13.346;2022-10-16T00:20:50;100672.00;;;19.90
15845;BMP180;50807;52.436;13.346;2022-10-16T00:21:24;100674.00;;;19.90
15845;BMP180;50807;52.436;13.346;2022-10-16T00:21:56;100677.00;;;19.90
15845;BMP180;50807;52.436;13.346;2022-10-16T00:22:27;100674.00;;;19.90
15845;BMP180;50807;52.436;13.346;2022-10-16T00:22:58;100676.00;;;19.90
15845;BMP180;50807;52.436;13.346;2022-10-16T00:23:30;100682.00;;;19.90
15845;BMP180;50807;52.436;13.346;2022-10-16T00:24:04;100682.00;;;19.90
15845;BMP180;50807;52.436;13.346;2022-10-16T00:24:36;100685.00;;;19.90
15845;BMP180;50807;52.436;13.346;2022-10-16T00:25:08;100683.00;;;19.90
15845;BMP180;50807;52.436;13.346;2022-10-16T00:25:39;100681.00;;;19.90
15845;BMP180;50807;52.436;13.346;2022-10-16T00:26:13;100677.00;;;19.90
15845;BMP180;50807;52.436;13.346;2022-10-16T00:26:49;100687.00;;;19.80
15845;BMP180;50807;52.436;13.346;2022-10-16T00:27:20;100693.00;;;19.90
15845;BMP180;50807;52.436;13.346;2022-10-16T00:27:50;100693.00;;;19.90
15845;BMP180;50807;52.436;13.346;2022-10-16T00:28:22;100691.00;;;19.90
15845;BMP180;50807;52.436;13.346;2022-10-16T00:28:53;100685.00;;;19.90
15845;BMP180;50807;52.436;13.346;2022-10-16T00:29:24;100693.00;;;19.90
15845;BMP180;50807;52.436;13.346;2022-10-16T00:29:56;100695.00;;;19.90
15845;BMP180;50807;52.436;13.346;2022-10-16T00:30:27;100698.00;;;20.00
15845;BMP180;50807;52.436;13.346;2022-10-16T00:30:58;100691.00;;;19.90
15845;BMP180;50807;52.436;13.346;2022-10-16T00:31:30;100697.00;;;19.90
15845;BMP180;50807;52.436;13.346;2022-10-16T00:32:02;100701.00;;;20.00
15845;BMP180;50807;52.436;13.346;2022-10-16T00:32:32;100697.00;;;20.00
15845;BMP180;50807;52.436;13.346;2022-10-16T00:33:04;100699.00;;;20.00
15845;BMP180;50807;52.436;13.346;2022-10-16T00:33:38;100700.00;;;19.90
15845;BMP180;50807;52.436;13.346;2022-10-16T00:34:10;100699.00;;;19.90
15845;BMP180;50807;52.436;13.346;2022-10-16T00:34:41;100699.00;;;19.90
15845;BMP180;50807;52.436;13.346;2022-10-16T00:35:12;100699.00;;;20.00
15845;BMP180;50807;52.436;13.346;2022-10-16T00:35:43;100697.00;;;20.00
15845;BMP180;50807;52.436;13.346;2022-10-16T00:36:17;100699.00;;;19.90
15845;BMP180;50807;52.436;13.346;2022-10-16T00:36:49;100695.00;;;20.00
15845;BMP180;50807;52.436;13.346;2022-10-16T00:37:19;100702.00;;;20.00
15845;BMP180;50807;52.436;13.346;2022-10-16T00:37:50;100703.00;;;20.00
15845;BMP180;50807;52.436;13.346;2022-10-16T00:38:22;100697.00;;;20.00
15845;BMP180;50807;52.436;13.346;2022-10-16T00:38:56;100700.00;;;20.00
15845;BMP180;50807;52.436;13.346;2022-10-16T00:39:27;100698.00;;;20.00
15845;BMP180;50807;52.436;13.346;2022-10-16T00:39:59;100700.00;;;20.00
15845;BMP180;50807;52.436;13.346;2022-10-16T00:40:30;100698.00;;;20.00
15845;BMP180;50807;52.436;13.346;2022-10-16T00:41:01;100704.00;;;20.00
15845;BMP180;50807;52.436;13.346;2022-10-16T00:41:33;100702.00;;;20.00
15845;BMP180;50807;52.436;13.346;2022-10-16T00:42:05;100700.00;;;20.00
15845;BMP180;50807;52.436;13.346;2022-10-16T00:42:36;100696.00;;;20.00
15845;BMP180;50807;52.436;13.346;2022-10-16T00:43:13;100702.00;;;19.90
15845;BMP180;50807;52.436;13.346;2022-10-16T00:43:47;100697.00;;;19.90
15845;BMP180;50807;52.436;13.346;2022-10-16T00:44:44;100697.00;;;19.80
15845;BMP180;50807;52.436;13.346;2022-10-16T00:45:16;100690.00;;;19.80
15845;BMP180;50807;52.436;13.346;2022-10-16T00:45:47;100697.00;;;19.90
15845;BMP180;50807;52.436;13.346;2022-10-16T00:46:22;100699.00;;;19.80
15845;BMP180;50807;52.436;13.346;2022-10-16T00:46:54;100694.00;;;19.90
15845;BMP180;50807;52.436;13.346;2022-10-16T00:47:30;100695.00;;;19.80
15845;BMP180;50807;52.436;13.346;2022-10-16T00:48:02;100696.00;;;19.80
15845;BMP180;50807;52.436;13.346;2022-10-16T00:48:35;100698.00;;;19.90
15845;BMP180;50807;52.436;13.346;2022-10-16T00:49:10;100698.00;;;19.80
15845;BMP180;50807;52.436;13.346;2022-10-16T00:49:41;100693.00;;;19.90
15845;BMP180;50807;52.436;13.346;2022-10-16T00:50:18;100691.00;;;19.80
15845;BMP180;50807;52.436;13.346;2022-10-16T00:50:54;100697.00;;;19.80
15845;BMP180;50807;52.436;13.346;2022-10-16T00:51:30;100695.00;;;19.80
15845;BMP180;50807;52.436;13.346;2022-10-16T00:52:02;100696.00;;;19.80
15845;BMP180;50807;52.436;13.346;2022-10-16T00:52:34;100699.00;;;19.90
15845;BMP180;50807;52.436;13.346;2022-10-16T00:53:05;100692.00;;;19.90
15845;BMP180;50807;52.436;13.346;2022-10-16T00:53:36;100698.00;;;19.90
15845;BMP180;50807;52.436;13.346;2022-10-16T00:54:13;100700.00;;;19.90
15845;BMP180;50807;52.436;13.346;2022-10-16T00:54:46;100699.00;;;19.90
15845;BMP180;50807;52.436;13.346;2022-10-16T00:55:19;100708.00;;;19.90
15845;BMP180;50807;52.436;13.346;2022-10-16T00:55:51;100706.00;;;19.90
15845;BMP180;50807;52.436;13.346;2022-10-16T00:56:22;100707.00;;;19.90
15845;BMP180;50807;52.436;13.346;2022-10-16T00:56:53;100705.00;;;19.90
15845;BMP180;50807;52.436;13.346;2022-10-16T00:57:25;100703.00;;;19.90
15845;BMP180;50807;52.436;13.346;2022-10-16T00:57:57;100702.00;;;19.90
15845;BMP180;50807;52.436;13.346;2022-10-16T00:58:28;100701.00;;;19.90
15845;BMP180;50807;52.436;13.346;2022-10-16T00:59:01;100705.00;;;19.90
15845;BMP180;50807;52.436;13.346;2022-10-16T00:59:38;100705.00;;;19.90
15845;BMP180;50807;52.436;13.346;2022-10-16T01:00:16;100708.00;;;19.90
15845;BMP180;50807;52.436;13.346;2022-10-16T01:00:48;100709.00;;;19.90
15845;BMP180;50807;52.436;13.346;2022-10-16T01:01:20;100702.00;;;19.90
15845;BMP180;50807;52.436;13.346;2022-10-16T01:01:52;100707.00;;;19.90
15845;BMP180;50807;52.436;13.346;2022-10-16T01:02:23;100711.00;;;19.90
15845;BMP180;50807;52.436;13.346;2022-10-16T01:02:58;100709.00;;;19.90
15845;BMP180;50807;52.436;13.346;2022-10-16T01:03:31;100696.00;;;19.90
15845;BMP180;50807;52.436;13.346;2022-10-16T01:04:04;100707.00;;;19.90
15845;BMP180;50807;52.436;13.346;2022-10-16T01:04:40;100705.00;;;19.80
15845;BMP180;50807;52.436;13.346;2022-10-16T01:05:11;100699.00;;;19.90
15845;BMP180;50807;52.436;13.346;2022-10-16T01:05:52;100697.00;;;19.80
15845;BMP180;50807;52.436;13.346;2022-10-16T01:06:36;100705.00;;;19.80
15845;BMP180;50807;52.436;13.346;2022-10-16T01:07:18;100703.00;;;19.80
15845;BMP180;50807;52.436;13.346;2022-10-16T01:08:04;100694.00;;;19.70
15845;BMP180;50807;52.436;13.346;2022-10-16T01:08:49;100710.00;;;19.70
15845;BMP180;50807;52.436;13.346;2022-10-16T01:09:33;100700.00;;;19.70
15845;BMP180;50807;52.436;13.346;2022-10-16T01:10:17;100700.00;;;19.70
15845;BMP180;50807;52.436;13.346;2022-10-16T01:10:57;100703.00;;;19.70
15845;BMP180;50807;52.436;13.346;2022-10-16T01:11:38;100693.00;;;19.70
15845;BMP180;50807;52.436;13.346;2022-10-16T01:12:18;100697.00;;;19.70
15845;BMP180;50807;52.436;13.346;2022-10-16T01:12:58;100698.00;;;19.70
15845;BMP180;50807;52.436;13.346;2022-10-16T01:13:38;100700.00;;;19.70
15845;BMP180;50807;52.436;13.346;2022-10-16T01:14:20;100705.00;;;19.70
15845;BMP180;50807;52.436;13.346;2022-10-16T01:14:58;100711.00;;;19.70
15845;BMP180;50807;52.436;13.346;2022-10-16T01:15:37;100699.00;;;19.70
15845;BMP180;50807;52.436;13.346;2022-10-16T01:16:21;100702.00;;;19.60
15845;BMP180;50807;52.436;13.346;2022-10-16T01:17:01;100713.00;;;19.70
15845;BMP180;50807;52.436;13.346;2022-10-16T01:17:41;100707.00;;;19.60
15845;BMP180;50807;52.436;13.346;2022-10-16T01:18:19;100723.00;;;19.60
15845;BMP180;50807;52.436;13.346;2022-10-16T01:19:01;100707.00;;;19.60
15845;BMP180;50807;52.436;13.346;2022-10-16T01:20:01;100717.00;;;19.60
15845;BMP180;50807;52.436;13.346;2022-10-16T01:20:39;100720.00;;;19.60
15845;BMP180;50807;52.436;13.346;2022-10-16T01:21:19;100715.00;;;19.60
15845;BMP180;50807;52.436;13.346;2022-10-16T01:21:55;100716.00;;;19.60
15845;BMP180;50807;52.436;13.346;2022-10-16T01:22:39;100717.00;;;19.60
15845;BMP180;50807;52.436;13.346;2022-10-16T01:23:27;100720.00;;;19.60
15845;BMP180;50807;52.436;13.346;2022-10-16T01:24:10;100709.00;;;19.60
15845;BMP180;50807;52.436;13.346;2022-10-16T01:24:48;100725.00;;;19.60
15845;BMP180;50807;52.436;13.346;2022-10-16T01:25:30;100721.00;;;19.60
15845;BMP180;50807;52.436;13.346;2022-10-16T01:26:33;100722.00;;;19.50
15845;BMP180;50807;52.436;13.346;2022-10-16T01:27:11;100722.00;;;19.50
15845;BMP180;50807;52.436;13.346;2022-10-16T01:27:47;100719.00;;;19.60
15845;BMP180;50807;52.436;13.346;2022-10-16T01:28:22;100721.00;;;19.60
15845;BMP180;50807;52.436;13.346;2022-10-16T01:29:01;100716.00;;;19.60
15845;BMP180;50807;52.436;13.346;2022-10-16T01:29:42;100719.00;;;19.60
15845;BMP180;50807;52.436;13.346;2022-10-16T01:30:21;100725.00;;;19.60
15845;BMP180;50807;52.436;13.346;2022-10-16T01:30:58;100723.00;;;19.60
15845;BMP180;50807;52.436;13.346;2022-10-16T01:31:37;100728.00;;;19.60
15845;BMP180;50807;52.436;13.346;2022-10-16T01:32:16;100730.00;;;19.60
15845;BMP180;50807;52.436;13.346;2022-10-16T01:32:55;100729.00;;;19.60
15845;BMP180;50807;52.436;13.346;2022-10-16T01:33:35;100730.00;;;19.60
15845;BMP180;50807;52.436;13.346;2022-10-16T01:34:15;100731.00;;;19.60
15845;BMP180;50807;52.436;13.346;2022-10-16T01:34:52;100724.00;;;19.60
15845;BMP180;50807;52.436;13.346;2022-10-16T01:35:29;100736.00;;;19.60
15845;BMP180;50807;52.436;13.346;2022-10-16T01:36:09;100737.00;;;19.60
15845;BMP180;50807;52.436;13.346;2022-10-16T01:36:46;100731.00;;;19.60
15845;BMP180;50807;52.436;13.346;2022-10-16T01:37:32;100733.00;;;19.50
15845;BMP180;50807;52.436;13.346;2022-10-16T01:38:08;100738.00;;;19.50
15845;BMP180;50807;52.436;13.346;2022-10-16T01:38:47;100741.00;;;19.50
15845;BMP180;50807;52.436;13.346;2022-10-16T01:39:23;100740.00;;;19.50
15845;BMP180;50807;52.436;13.346;2022-10-16T01:39:59;100733.00;;;19.50
15845;BMP180;50807;52.436;13.346;2022-10-16T01:40:34;100732.00;;;19.50
15845;BMP180;50807;52.436;13.346;2022-10-16T01:41:11;100733.00;;;19.60
15845;BMP180;50807;52.436;13.346;2022-10-16T01:41:48;100733.00;;;19.50
15845;BMP180;50807;52.436;13.346;2022-10-16T01:42:30;100742.00;;;19.50
15845;BMP180;50807;52.436;13.346;2022-10-16T01:43:12;100739.00;;;19.50
15845;BMP180;50807;52.436;13.346;2022-10-16T01:43:48;100746.00;;;19.50
15845;BMP180;50807;52.436;13.346;2022-10-16T01:44:26;100739.00;;;19.50
15845;BMP180;50807;52.436;13.346;2022-10-16T01:45:00;100744.00;;;19.50
15845;BMP180;50807;52.436;13.346;2022-10-16T01:45:34;100741.00;;;19.50
15845;BMP180;50807;52.436;13.346;2022-10-16T01:46:10;100744.00;;;19.50
15845;BMP180;50807;52.436;13.346;2022-10-16T01:46:46;100747.00;;;19.50
15845;BMP180;50807;52.436;13.346;2022-10-16T01:47:23;100748.00;;;19.50
15845;BMP180;50807;52.436;13.346;2022-10-16T01:47:58;100739.00;;;19.60
15845;BMP180;50807;52.436;13.346;2022-10-16T01:48:32;100742.00;;;19.50
15845;BMP180;50807;52.436;13.346;2022-10-16T01:49:05;100738.00;;;19.50
15845;BMP180;50807;52.436;13.346;2022-10-16T01:49:39;100734.00;;;19.50
15845;BMP180;50807;52.436;13.346;2022-10-16T01:50:13;100739.00;;;19.50
15845;BMP180;50807;52.436;13.346;2022-10-16T01:51:08;100737.00;;;19.40
15845;BMP180;50807;52.436;13.346;2022-10-16T01:51:44;100739.00;;;19.40
15845;BMP180;50807;52.436;13.346;2022-10-16T01:52:21;100741.00;;;19.40
15845;BMP180;50807;52.436;13.346;2022-10-16T01:52:56;100740.00;;;19.40
15845;BMP180;50807;52.436;13.346;2022-10-16T01:53:29;100743.00;;;19.50
15845;BMP180;50807;52.436;13.346;2022-10-16T01:54:02;100744.00;;;19.50
15845;BMP180;50807;52.436;13.346;2022-10-16T01:54:37;100738.00;;;19.50
15845;BMP180;50807;52.436;13.346;2022-10-16T01:55:14;100742.00;;;19.40
15845;BMP180;50807;52.436;13.346;2022-10-16T01:55:48;100741.00;;;19.50
15845;BMP180;50807;52.436;13.346;2022-10-16T01:56:21;100739.00;;;19.50
15845;BMP180;50807;52.436;13.346;2022-10-16T01:56:54;100743.00;;;19.50
15845;BMP180;50807;52.436;13.346;2022-10-16T01:57:29;100742.00;;;19.50
15845;BMP180;50807;52.436;13.346;2022-10-16T01:58:03;100743.00;;;19.50
15845;BMP180;50807;52.436;13.346;2022-10-16T01:58:42;100747.00;;;19.40
15845;BMP180;50807;52.436;13.346;2022-10-16T01:59:20;100746.00;;;19.40
15845;BMP180;50807;52.436;13.346;2022-10-16T01:59:56;100744.00;;;19.40
15845;BMP180;50807;52.436;13.346;2022-10-16T02:00:31;100742.00;;;19.50
15845;BMP180;50807;52.436;13.346;2022-10-16T02:01:04;100745.00;;;19.50
15845;BMP180;50807;52.436;13.346;2022-10-16T02:01:42;100748.00;;;19.50
15845;BMP180;50807;52.436;13.346;2022-10-16T02:02:17;100756.00;;;19.50
15845;BMP180;50807;52.436;13.346;2022-10-16T02:02:53;100751.00;;;19.40
15845;BMP180;50807;52.436;13.346;2022-10-16T02:03:26;100747.00;;;19.50
15845;BMP180;50807;52.436;13.346;2022-10-16T02:04:03;100746.00;;;19.40
15845;BMP180;50807;52.436;13.346;2022-10-16T02:04:39;100755.00;;;19.50
15845;BMP180;50807;52.436;13.346;2022-10-16T02:05:16;100753.00;;;19.50
15845;BMP180;50807;52.436;13.346;2022-10-16T02:05:53;100757.00;;;19.50
15845;BMP180;50807;52.436;13.346;2022-10-16T02:06:24;100752.00;;;19.50
15845;BMP180;50807;52.436;13.346;2022-10-16T02:06:56;100751.00;;;19.50
15845;BMP180;50807;52.436;13.346;2022-10-16T02:07:28;100753.00;;;19.60
15845;BMP180;50807;52.436;13.346;2022-10-16T02:07:59;100751.00;;;19.60
15845;BMP180;50807;52.436;13.346;2022-10-16T02:08:32;100753.00;;;19.50
15845;BMP180;50807;52.436;13.346;2022-10-16T02:09:04;100751.00;;;19.60
15845;BMP180;50807;52.436;13.346;2022-10-16T02:09:35;100752.00;;;19.60
15845;BMP180;50807;52.436;13.346;2022-10-16T02:10:07;100743.00;;;19.60
15845;BMP180;50807;52.436;13.346;2022-10-16T02:10:39;100753.00;;;19.60
15845;BMP180;50807;52.436;13.346;2022-10-16T02:11:11;100758.00;;;19.60
15845;BMP180;50807;52.436;13.346;2022-10-16T02:11:42;100752.00;;;19.60
15845;BMP180;50807;52.436;13.346;2022-10-16T02:12:20;100760.00;;;19.50
15845;BMP180;50807;52.436;13.346;2022-10-16T02:13:00;100767.00;;;19.50
15845;BMP180;50807;52.436;13.346;2022-10-16T02:13:37;100767.00;;;19.50
15845;BMP180;50807;52.436;13.346;2022-10-16T02:14:10;100769.00;;;19.50
15845;BMP180;50807;52.436;13.346;2022-10-16T02:14:41;100769.00;;;19.50
15845;BMP180;50807;52.436;13.346;2022-10-16T02:15:12;100762.00;;;19.50
15845;BMP180;50807;52.436;13.346;2022-10-16T02:15:44;100767.00;;;19.60
15845;BMP180;50807;52.436;13.346;2022-10-16T02:16:15;100770.00;;;19.50
15845;BMP180;50807;52.436;13.346;2022-10-16T02:16:46;100774.00;;;19.60
15845;BMP180;50807;52.436;13.346;2022-10-16T02:17:19;100767.00;;;19.60
15845;BMP180;50807;52.436;13.346;2022-10-16T02:17:50;100769.00;;;19.60
15845;BMP180;50807;52.436;13.346;2022-10-16T02:18:21;100770.00;;;19.60
15845;BMP180;50807;52.436;13.346;2022-10-16T02:18:53;100772.00;;;19.60
15845;BMP180;50807;52.436;13.346;2022-10-16T02:19:24;100773.00;;;19.60
15845;BMP180;50807;52.436;13.346;2022-10-16T02:19:57;100772.00;;;19.50
15845;BMP180;50807;52.436;13.346;2022-10-16T02:20:40;100771.00;;;19.50
15845;BMP180;50807;52.436;13.346;2022-10-16T02:21:19;100768.00;;;19.50
15845;BMP180;50807;52.436;13.346;2022-10-16T02:21:56;100768.00;;;19.50
15845;BMP180;50807;52.436;13.346;2022-10-16T02:22:32;100767.00;;;19.50
15845;BMP180;50807;52.436;13.346;2022-10-16T02:23:04;100774.00;;;19.50
15845;BMP180;50807;52.436;13.346;2022-10-16T02:23:47;100777.00;;;19.50
15845;BMP180;50807;52.436;13.346;2022-10-16T02:24:27;100774.00;;;19.50
15845;BMP180;50807;52.436;13.346;2022-10-16T02:25:06;100768.00;;;19.50
15845;BMP180;50807;52.436;13.346;2022-10-16T02:25:44;100770.00;;;19.50
15845;BMP180;50807;52.436;13.346;2022-10-16T02:26:26;100757.00;;;19.40
15845;BMP180;50807;52.436;13.346;2022-10-16T02:27:08;100769.00;;;19.40
15845;BMP180;50807;52.436;13.346;2022-10-16T02:27:49;100762.00;;;19.40
15845;BMP180;50807;52.436;13.346;2022-10-16T02:28:30;100762.00;;;19.40
15845;BMP180;50807;52.436;13.346;2022-10-16T02:29:08;100761.00;;;19.40
15845;BMP180;50807;52.436;13.346;2022-10-16T02:29:46;100753.00;;;19.50
15845;BMP180;50807;52.436;13.346;2022-10-16T02:30:27;100754.00;;;19.40
15845;BMP180;50807;52.436;13.346;2022-10-16T02:31:04;100753.00;;;19.50
15845;BMP180;50807;52.436;13.346;2022-10-16T02:31:46;100749.00;;;19.40
15845;BMP180;50807;52.436;13.346;2022-10-16T02:32:23;100761.00;;;19.40
15845;BMP180;50807;52.436;13.346;2022-10-16T02:32:56;100757.00;;;19.50
15845;BMP180;50807;52.436;13.346;2022-10-16T02:33:30;100765.00;;;19.50
15845;BMP180;50807;52.436;13.346;2022-10-16T02:34:03;100768.00;;;19.50
15845;BMP180;50807;52.436;13.346;2022-10-16T02:34:35;100765.00;;;19.60
15845;BMP180;50807;52.436;13.346;2022-10-16T02:35:09;100777.00;;;19.60
15845;BMP180;50807;52.436;13.346;2022-10-16T02:35:43;100772.00;;;19.60
15845;BMP180;50807;52.436;13.346;2022-10-16T02:36:15;100765.00;;;19.60
15845;BMP180;50807;52.436;13.346;2022-10-16T02:36:48;100767.00;;;19.60
15845;BMP180;50807;52.436;13.346;2022-10-16T02:37:20;100765.00;;;19.60
15845;BMP180;50807;52.436;13.346;2022-10-16T02:37:52;100763.00;;;19.60
15845;BMP180;50807;52.436;13.346;2022-10-16T02:38:26;100762.00;;;19.70
15845;BMP180;50807;52.436;13.346;2022-10-16T02:38:58;100760.00;;;19.60
15845;BMP180;50807;52.436;13.346;2022-10-16T02:39:31;100769.00;;;19.70
15845;BMP180;50807;52.436;13.346;2022-10-16T02:40:04;100764.00;;;19.70
15845;BMP180;50807;52.436;13.346;2022-10-16T02:40:36;100773.00;;;19.70
15845;BMP180;50807;52.436;13.346;2022-10-16T02:41:08;100770.00;;;19.70
15845;BMP180;50807;52.436;13.346;2022-10-16T02:41:40;100777.00;;;19.70
15845;BMP180;50807;52.436;13.346;2022-10-16T02:42:12;100779.00;;;19.70
15845;BMP180;50807;52.436;13.346;2022-10-16T02:42:43;100778.00;;;19.70
15845;BMP180;50807;52.436;13.346;2022-10-16T02:43:16;100772.00;;;19.70
15845;BMP180;50807;52.436;13.346;2022-10-16T02:43:48;100765.00;;;19.70
15845;BMP180;50807;52.436;13.346;2022-10-16T02:44:19;100774.00;;;19.70
15845;BMP180;50807;52.436;13.346;2022-10-16T02:44:51;100772.00;;;19.70
15845;BMP180;50807;52.436;13.346;2022-10-16T02:45:23;100768.00;;;19.70
15845;BMP180;50807;52.436;13.346;2022-10-16T02:45:54;100772.00;;;19.70
15845;BMP180;50807;52.436;13.346;2022-10-16T02:46:25;100765.00;;;19.70
15845;BMP180;50807;52.436;13.346;2022-10-16T02:46:57;100767.00;;;19.70
15845;BMP180;50807;52.436;13.346;2022-10-16T02:47:27;100771.00;;;19.70
15845;BMP180;50807;52.436;13.346;2022-10-16T02:47:58;100775.00;;;19.70
15845;BMP180;50807;52.436;13.346;2022-10-16T02:48:29;100767.00;;;19.70
15845;BMP180;50807;52.436;13.346;2022-10-16T02:49:01;100762.00;;;19.70
15845;BMP180;50807;52.436;13.346;2022-10-16T02:49:31;100765.00;;;19.70
15845;BMP180;50807;52.436;13.346;2022-10-16T02:50:03;100764.00;;;19.70
15845;BMP180;50807;52.436;13.346;2022-10-16T02:50:35;100762.00;;;19.70
15845;BMP180;50807;52.436;13.346;2022-10-16T02:51:06;100765.00;;;19.70
15845;BMP180;50807;52.436;13.346;2022-10-16T02:51:37;100768.00;;;19.70
15845;BMP180;50807;52.436;13.346;2022-10-16T02:52:09;100773.00;;;19.70
15845;BMP180;50807;52.436;13.346;2022-10-16T02:52:39;100763.00;;;19.70
15845;BMP180;50807;52.436;13.346;2022-10-16T02:53:10;100770.00;;;19.70
15845;BMP180;50807;52.436;13.346;2022-10-16T02:53:42;100765.00;;;19.70
15845;BMP180;50807;52.436;13.346;2022-10-16T02:54:13;100767.00;;;19.80
15845;BMP180;50807;52.436;13.346;2022-10-16T02:54:43;100772.00;;;19.80
15845;BMP180;50807;52.436;13.346;2022-10-16T02:55:15;100769.00;;;19.70
15845;BMP180;50807;52.436;13.346;2022-10-16T02:55:46;100769.00;;;19.80
15845;BMP180;50807;52.436;13.346;2022-10-16T02:56:18;100768.00;;;19.70
15845;BMP180;50807;52.436;13.346;2022-10-16T02:56:49;100770.00;;;19.70
15845;BMP180;50807;52.436;13.346;2022-10-16T02:57:20;100768.00;;;19.70
15845;BMP180;50807;52.436;13.346;2022-10-16T02:57:51;100768.00;;;19.70
15845;BMP180;50807;52.436;13.346;2022-10-16T02:58:22;100763.00;;;19.70
15845;BMP180;50807;52.436;13.346;2022-10-16T02:58:55;100763.00;;;19.70
15845;BMP180;50807;52.436;13.346;2022-10-16T02:59:25;100764.00;;;19.70
15845;BMP180;50807;52.436;13.346;2022-10-16T02:59:57;100767.00;;;19.70
15845;BMP180;50807;52.436;13.346;2022-10-16T03:00:28;100765.00;;;19.70
15845;BMP180;50807;52.436;13.346;2022-10-16T03:00:59;100761.00;;;19.70
15845;BMP180;50807;52.436;13.346;2022-10-16T03:01:30;100767.00;;;19.70
15845;BMP180;50807;52.436;13.346;2022-10-16T03:02:01;100766.00;;;19.70
15845;BMP180;50807;52.436;13.346;2022-10-16T03:02:32;100766.00;;;19.70
15845;BMP180;50807;52.436;13.346;2022-10-16T03:03:04;100763.00;;;19.70
15845;BMP180;50807;52.436;13.346;2022-10-16T03:03:34;100772.00;;;19.70
15845;BMP180;50807;52.436;13.346;2022-10-16T03:04:05;100767.00;;;19.70
15845;BMP180;50807;52.436;13.346;2022-10-16T03:04:36;100771.00;;;19.70
15845;BMP180;50807;52.436;13.346;2022-10-16T03:05:09;100773.00;;;19.70
15845;BMP180;50807;52.436;13.346;2022-10-16T03:05:40;100770.00;;;19.70
15845;BMP180;50807;52.436;13.346;2022-10-16T03:06:11;100775.00;;;19.70
15845;BMP180;50807;52.436;13.346;2022-10-16T03:06:42;100779.00;;;19.70
15845;BMP180;50807;52.436;13.346;2022-10-16T03:07:13;100781.00;;;19.70
15845;BMP180;50807;52.436;13.346;2022-10-16T03:07:44;100780.00;;;19.70
15845;BMP180;50807;52.436;13.346;2022-10-16T03:08:15;100783.00;;;19.70
15845;BMP180;50807;52.436;13.346;2022-10-16T03:08:46;100781.00;;;19.70
15845;BMP180;50807;52.436;13.346;2022-10-16T03:09:17;100789.00;;;19.70
15845;BMP180;50807;52.436;13.346;2022-10-16T03:09:48;100789.00;;;19.60
15845;BMP180;50807;52.436;13.346;2022-10-16T03:10:19;100787.00;;;19.70
15845;BMP180;50807;52.436;13.346;2022-10-16T03:10:51;100791.00;;;19.60
15845;BMP180;50807;52.436;13.346;2022-10-16T03:11:22;100785.00;;;19.60
15845;BMP180;50807;52.436;13.346;2022-10-16T03:11:53;100786.00;;;19.60
15845;BMP180;50807;52.436;13.346;2022-10-16T03:12:25;100789.00;;;19.60